EDT,Max TemperatureF,Mean TemperatureF,Min TemperatureF,Max Dew PointF,MeanDew PointF,Min DewpointF,Max Humidity, Mean Humidity, Min Humidity, Max Sea Level PressureIn, Mean Sea Level PressureIn, Min Sea Level PressureIn, Max VisibilityMiles, Mean VisibilityMiles, Min VisibilityMiles, Max Wind SpeedMPH, Mean Wind SpeedMPH, Max Gust SpeedMPH,PrecipitationIn, CloudCover, Events, WindDirDegrees
2012-10-1,61,59,57,58,56,55,100,92,86,29.93,29.87,29.80,10,4,1,10,5,,0.43,8,Rain,57
2012-10-2,80,69,59,70,63,57,100,89,56,29.94,29.82,29.75,10,4,0,13,4,21,0.31,6,Fog-Rain,236
2012-10-3,75,68,63,63,61,60,97,79,62,30.15,30.05,29.94,10,10,7,8,2,,0.01,3,,198
2012-10-4,78,70,60,63,59,55,94,75,47,30.22,30.17,30.14,10,10,7,5,1,,0.00,1,,294
2012-10-5,78,66,55,58,55,52,89,72,47,30.19,30.09,30.00,10,10,10,8,2,,0.00,0,,276
2012-10-6,79,66,53,59,56,53,100,80,46,29.99,29.94,29.87,10,6,0,9,1,,0.01,3,Fog,341
2012-10-7,62,57,50,55,50,45,94,84,64,30.13,30.03,29.93,10,9,2,13,5,24,0.29,7,Rain-Thunderstorm,43
2012-10-8,50,48,46,45,42,40,93,80,68,30.22,30.16,30.12,10,10,3,9,6,,0.01,8,Rain,37
2012-10-9,57,52,46,49,46,44,93,85,69,30.18,30.12,30.06,10,8,3,6,2,,0.00,8,,21
2012-10-10,70,58,46,51,47,43,90,69,45,30.12,30.05,30.00,10,10,10,14,3,24,0.00,3,,293
2012-10-11,66,52,41,47,42,39,97,73,47,30.27,30.20,30.13,10,9,1,7,3,16,0.00,0,,22
2012-10-12,73,58,44,51,46,43,100,79,43,30.29,30.20,30.16,10,7,1,7,1,,0.00,2,,325
2012-10-13,64,54,45,47,42,35,93,65,46,30.46,30.36,30.30,10,10,10,12,3,,0.00,1,,32
2012-10-14,66,56,46,58,52,45,93,80,63,30.30,30.17,30.00,10,10,7,8,2,,0.01,6,,207
2012-10-15,75,65,57,63,55,40,100,78,35,30.00,29.87,29.73,10,8,1,16,4,24,0.82,6,Rain-Thunderstorm,235
2012-10-16,69,58,46,48,43,38,86,62,37,29.95,29.89,29.84,10,10,10,8,2,,0.00,0,,269
2012-10-17,70,56,44,49,46,43,100,76,39,29.97,29.91,29.86,10,9,2,9,1,,0.01,0,,235
2012-10-18,70,60,50,57,53,45,94,84,61,29.90,29.83,29.74,10,9,2,8,2,18,0.00,5,Thunderstorm,204
2012-10-19,68,57,46,55,48,33,100,80,28,29.79,29.75,29.66,10,4,0,13,2,22,0.01,1,Fog,255
2012-10-20,68,55,44,42,40,37,85,61,37,29.94,29.81,29.73,10,10,10,9,3,,0.00,0,,309
2012-10-21,68,54,41,47,43,39,93,69,42,30.13,30.07,29.96,10,10,10,6,1,,0.00,0,,351
2012-10-22,75,60,46,51,47,42,93,71,40,30.21,30.15,30.11,10,10,10,6,1,,0.00,0,,280
2012-10-23,77,62,48,53,50,47,93,69,40,30.17,30.12,30.06,10,10,9,9,2,,0.01,0,,244
2012-10-24,81,64,50,54,51,48,93,71,38,30.17,30.11,30.06,10,9,2,5,0,,0.00,0,,280
2012-10-25,77,63,51,57,53,49,93,73,48,30.14,30.09,30.06,10,10,7,7,1,,0.01,2,,319
2012-10-26,77,66,55,58,56,53,93,74,47,30.09,30.02,29.94,10,10,7,8,2,,0.00,2,,58
2012-10-27,71,64,57,58,55,51,94,77,55,29.97,29.83,29.71,10,10,8,12,4,,0.00,6,,11
2012-10-28,68,56,45,49,44,32,86,67,45,29.75,29.68,29.62,10,10,10,16,6,23,0.00,3,Rain,321
2012-10-29,50,46,43,32,29,27,60,52,46,29.68,29.58,29.47,10,10,10,20,12,34,0.00,6,,319
2012-10-30,46,43,41,30,29,25,60,56,49,29.60,29.48,29.38,10,10,10,20,14,30,0.00,6,,274
2012-10-31,55,46,39,34,32,28,76,57,45,29.74,29.67,29.60,10,10,10,16,7,26,0.00,4,,284